createdAt,value
2018-07-11T00:01:58.241Z,7.83
2018-07-11T00:04:28.391Z,8.00
2018-07-11T00:06:58.547Z,8.50
2018-07-11T00:09:28.628Z,7.53
2018-07-11T00:11:58.852Z,6.90
2018-07-11T00:14:34.096Z,7.57
2018-07-11T00:17:06.109Z,7.40
2018-07-11T00:19:36.174Z,8.20
2018-07-11T00:22:06.430Z,9.10
2018-07-11T00:24:36.775Z,8.53
2018-07-11T00:27:07.611Z,8.30
2018-07-11T00:29:37.700Z,8.30
2018-07-11T00:32:07.976Z,7.87
2018-07-11T00:34:38.008Z,8.00
2018-07-11T00:37:08.733Z,8.20
2018-07-11T00:39:38.825Z,9.00
2018-07-11T00:42:09.561Z,8.07
2018-07-11T00:44:39.700Z,8.23
2018-07-11T00:47:10.390Z,7.80
2018-07-11T00:49:40.925Z,6.93
2018-07-11T00:52:11.406Z,9.03
2018-07-11T00:54:41.253Z,8.10
2018-07-11T00:57:11.315Z,7.67
2018-07-11T00:59:42.811Z,7.20
2018-07-11T01:02:12.873Z,9.07
2018-07-11T01:04:43.053Z,8.70
2018-07-11T01:07:13.230Z,9.00
2018-07-11T01:09:46.252Z,7.37
2018-07-11T01:12:16.780Z,8.23
2018-07-11T01:14:47.074Z,9.43
2018-07-11T01:17:22.202Z,8.67
2018-07-11T01:19:53.374Z,7.90
2018-07-11T01:22:23.200Z,9.83
2018-07-11T01:24:54.213Z,8.60
2018-07-11T01:27:24.514Z,8.33
2018-07-11T01:29:54.637Z,9.30
2018-07-11T01:32:24.607Z,9.10
2018-07-11T01:34:54.890Z,7.00
2018-07-11T01:37:24.781Z,9.40
2018-07-11T01:39:54.929Z,8.93
2018-07-11T01:42:25.115Z,8.80
2018-07-11T01:44:55.096Z,7.77
2018-07-11T01:47:25.272Z,8.30
2018-07-11T01:49:55.325Z,8.60
2018-07-11T01:52:36.135Z,7.80
2018-07-11T01:55:06.008Z,7.93
2018-07-11T01:57:36.730Z,6.80
2018-07-11T02:00:06.920Z,7.10
2018-07-11T02:02:37.652Z,5.67
2018-07-11T02:05:08.075Z,5.80
2018-07-11T02:07:37.994Z,4.80
2018-07-11T02:10:08.145Z,4.73
2018-07-11T02:12:39.221Z,5.10
2018-07-11T02:15:09.245Z,4.73
2018-07-11T02:17:39.450Z,4.53
2018-07-11T02:20:16.345Z,4.90
2018-07-11T02:22:50.905Z,4.80
2018-07-11T02:25:21.530Z,4.97
2018-07-11T02:27:52.064Z,4.93
2018-07-11T02:30:22.253Z,4.90
2018-07-11T02:32:52.410Z,4.33
2018-07-11T02:35:22.911Z,4.33
2018-07-11T02:37:53.053Z,4.80
2018-07-11T02:40:22.849Z,5.23
2018-07-11T02:42:52.941Z,4.63
2018-07-11T02:45:23.084Z,5.20
2018-07-11T02:47:53.061Z,4.17
2018-07-11T02:50:23.528Z,4.87
2018-07-11T02:52:53.658Z,5.13
2018-07-11T02:55:23.938Z,4.90
2018-07-11T02:57:54.155Z,4.90
2018-07-11T03:00:30.530Z,4.40
2018-07-11T03:03:01.084Z,4.30
2018-07-11T03:05:31.207Z,4.50
2018-07-11T03:08:01.494Z,4.40
2018-07-11T03:10:31.336Z,4.27
2018-07-11T03:13:01.150Z,4.47
2018-07-11T03:15:31.155Z,4.00
2018-07-11T03:18:00.988Z,4.83
2018-07-11T03:20:31.131Z,4.57
2018-07-11T03:23:01.533Z,4.80
2018-07-11T03:25:31.799Z,4.53
2018-07-11T03:28:01.859Z,4.37
2018-07-11T03:30:32.097Z,5.23
2018-07-11T03:33:02.304Z,4.57
2018-07-11T03:35:32.663Z,4.70
2018-07-11T03:38:02.772Z,5.40
2018-07-11T03:40:32.954Z,5.33
2018-07-11T03:43:03.209Z,5.00
2018-07-11T03:45:33.497Z,5.40
2018-07-11T03:48:04.031Z,4.30
2018-07-11T03:50:34.011Z,4.00
2018-07-11T03:53:03.899Z,4.70
2018-07-11T03:55:34.179Z,4.60
2018-07-11T03:58:04.642Z,4.50
2018-07-11T04:00:34.877Z,4.87
2018-07-11T04:03:04.923Z,4.47
2018-07-11T04:05:35.037Z,5.03
2018-07-11T04:08:05.424Z,4.47
2018-07-11T04:10:35.413Z,3.97
2018-07-11T04:13:05.548Z,4.03
2018-07-11T04:15:35.652Z,3.97
2018-07-11T04:18:05.808Z,4.50
2018-07-11T04:20:36.239Z,4.30
2018-07-11T04:23:06.467Z,4.20
2018-07-11T04:25:36.596Z,4.57
2018-07-11T04:28:06.809Z,4.30
2018-07-11T04:30:37.348Z,3.87
2018-07-11T04:33:07.767Z,4.13
2018-07-11T04:35:37.725Z,4.20
2018-07-11T04:38:08.619Z,4.30
2018-07-11T04:40:39.150Z,4.57
2018-07-11T04:43:10.041Z,4.00
2018-07-11T04:45:40.664Z,5.00
2018-07-11T04:48:10.965Z,3.73
2018-07-11T04:50:41.691Z,4.03
2018-07-11T04:53:14.373Z,4.10
2018-07-11T04:55:44.383Z,4.27
2018-07-11T04:58:14.682Z,4.83
2018-07-11T05:00:45.148Z,4.50
2018-07-11T05:03:15.527Z,5.00
2018-07-11T05:05:45.641Z,5.37
2018-07-11T05:08:16.214Z,5.50
2018-07-11T05:10:46.523Z,5.10
2018-07-11T05:13:17.059Z,4.53
2018-07-11T05:15:47.530Z,4.77
2018-07-11T05:18:18.687Z,5.10
2018-07-11T05:20:49.167Z,6.20
2018-07-11T05:23:19.595Z,7.30
2018-07-11T05:25:49.885Z,7.60
2018-07-11T05:28:20.397Z,8.90
2018-07-11T05:30:50.573Z,7.67
2018-07-11T05:33:20.801Z,7.37
2018-07-11T05:35:50.911Z,7.07
2018-07-11T05:38:27.681Z,7.20
2018-07-11T05:40:58.591Z,7.90
2018-07-11T05:43:29.061Z,6.97
2018-07-11T05:45:59.182Z,7.33
2018-07-11T05:48:29.406Z,8.10
2018-07-11T05:50:59.500Z,8.50
2018-07-11T05:53:29.646Z,7.53
2018-07-11T05:56:00.459Z,8.30
2018-07-11T05:58:31.206Z,8.33
2018-07-11T06:01:02.234Z,9.07
2018-07-11T06:03:32.443Z,8.73
2018-07-11T06:06:02.295Z,8.87
2018-07-11T06:08:32.389Z,9.03
2018-07-11T06:11:04.243Z,10.20
2018-07-11T06:13:34.160Z,8.93
2018-07-11T06:16:04.578Z,9.03
2018-07-11T06:18:34.583Z,10.00
2018-07-11T06:21:04.447Z,9.33
2018-07-11T06:23:34.289Z,9.63
2018-07-11T06:26:05.350Z,10.13
2018-07-11T06:28:35.341Z,9.10
2018-07-11T06:31:05.774Z,10.20
2018-07-11T06:33:35.915Z,10.03
2018-07-11T06:36:06.507Z,9.00
2018-07-11T06:38:36.857Z,8.80
2018-07-11T06:41:06.933Z,8.60
2018-07-11T06:43:37.186Z,9.57
2018-07-11T06:46:07.594Z,9.50
2018-07-11T06:48:37.489Z,9.20
2018-07-11T06:51:07.655Z,9.90
2018-07-11T06:53:37.859Z,9.93
2018-07-11T06:56:07.973Z,10.00
2018-07-11T06:58:38.358Z,9.57
2018-07-11T07:01:09.301Z,8.63
2018-07-11T07:03:39.764Z,7.90
2018-07-11T07:06:10.755Z,8.63
2018-07-11T07:08:41.055Z,7.67
2018-07-11T07:11:11.173Z,8.53
2018-07-11T07:13:41.351Z,9.50
2018-07-11T07:16:11.212Z,8.80
2018-07-11T07:18:41.336Z,8.57
2018-07-11T07:21:11.476Z,7.77
2018-07-11T07:23:41.695Z,7.53
2018-07-11T07:26:11.822Z,10.23
2018-07-11T07:28:42.524Z,7.70
2018-07-11T07:31:12.753Z,8.37
2018-07-11T07:33:42.821Z,7.10
2018-07-11T07:36:12.959Z,6.80
2018-07-11T07:38:44.320Z,7.23
2018-07-11T07:41:14.849Z,5.73
2018-07-11T07:43:44.849Z,8.00
2018-07-11T07:46:14.765Z,7.00
2018-07-11T07:48:44.849Z,6.93
2018-07-11T07:51:14.634Z,6.43
2018-07-11T07:53:44.506Z,5.50
2018-07-11T07:56:14.729Z,4.60
2018-07-11T07:58:45.154Z,4.53
2018-07-11T08:01:15.205Z,4.50
2018-07-11T08:03:46.689Z,4.30
2018-07-11T08:06:16.709Z,4.70
2018-07-11T08:08:46.888Z,4.67
2018-07-11T08:11:16.981Z,4.50
2018-07-11T08:13:47.233Z,4.90
2018-07-11T08:16:17.859Z,6.30
2018-07-11T08:18:50.877Z,4.47
2018-07-11T08:21:21.248Z,4.30
2018-07-11T08:24:02.402Z,4.60
2018-07-11T08:26:43.417Z,5.03
2018-07-11T08:32:27.799Z,5.37
2018-07-11T08:36:07.416Z,5.17
2018-07-11T08:38:49.879Z,4.87
2018-07-11T08:42:30.639Z,4.00
2018-07-11T08:47:27.606Z,4.43
2018-07-11T08:52:28.767Z,4.33
2018-07-11T08:57:12.316Z,5.23
2018-07-11T09:00:09.381Z,4.30
2018-07-11T09:02:50.381Z,3.83
2018-07-11T09:05:29.754Z,4.30
2018-07-11T09:09:30.400Z,4.67
2018-07-11T09:12:13.142Z,4.50
2018-07-11T09:14:53.129Z,3.73
2018-07-11T09:17:38.548Z,4.87
2018-07-11T09:20:19.826Z,4.40
2018-07-11T09:23:00.859Z,4.33
2018-07-11T09:25:31.373Z,3.90
2018-07-11T09:28:01.621Z,4.37
2018-07-11T09:30:31.840Z,3.90
2018-07-11T09:33:02.021Z,3.87
2018-07-11T09:35:32.264Z,3.80
2018-07-11T09:38:02.157Z,4.20
2018-07-11T09:40:32.414Z,4.30
2018-07-11T09:43:02.601Z,4.27
2018-07-11T09:45:32.851Z,4.50
2018-07-11T09:48:03.131Z,4.53
2018-07-11T09:50:34.006Z,4.90
2018-07-11T09:53:04.430Z,4.20
2018-07-11T09:55:34.538Z,4.10
2018-07-11T09:58:05.675Z,3.93
2018-07-11T10:00:40.950Z,4.00
2018-07-11T10:03:11.226Z,3.80
2018-07-11T10:05:41.406Z,4.37
2018-07-11T10:08:11.733Z,4.20
2018-07-11T10:10:41.793Z,4.77
2018-07-11T10:13:11.909Z,4.13
2018-07-11T10:15:42.162Z,4.40
2018-07-11T10:18:12.286Z,3.80
2018-07-11T10:20:42.380Z,4.00
2018-07-11T10:23:12.602Z,3.87
2018-07-11T10:25:43.155Z,3.83
2018-07-11T10:28:18.747Z,3.80
2018-07-11T10:30:49.364Z,4.20
2018-07-11T10:33:19.445Z,4.43
2018-07-11T10:35:49.414Z,4.53
2018-07-11T10:38:19.625Z,3.47
2018-07-11T10:40:49.474Z,3.80
2018-07-11T10:43:19.617Z,2.97
2018-07-11T10:45:49.755Z,3.23
2018-07-11T10:48:20.022Z,3.47
2018-07-11T10:50:50.382Z,3.47
2018-07-11T10:53:20.527Z,4.10
2018-07-11T10:55:50.891Z,3.20
2018-07-11T10:58:21.379Z,3.77
2018-07-11T11:01:05.031Z,3.90
2018-07-11T11:03:26.318Z,3.73
2018-07-11T11:05:57.029Z,3.87
2018-07-11T11:08:28.046Z,3.67
2018-07-11T11:10:58.391Z,3.30
2018-07-11T11:13:28.788Z,3.90
2018-07-11T11:15:58.998Z,3.70
2018-07-11T11:18:29.233Z,3.77
2018-07-11T11:20:59.390Z,3.50
2018-07-11T11:23:29.657Z,3.40
2018-07-11T11:26:00.047Z,3.50
2018-07-11T11:28:30.486Z,4.20
2018-07-11T11:31:00.690Z,9.60
2018-07-11T11:33:31.187Z,4.33
2018-07-11T11:36:01.441Z,6.23
2018-07-11T11:38:31.669Z,3.60
2018-07-11T11:41:01.821Z,4.20
2018-07-11T11:43:32.513Z,3.83
2018-07-11T11:46:02.950Z,3.93
2018-07-11T11:48:33.098Z,4.33
2018-07-11T11:51:04.113Z,3.93
2018-07-11T11:53:34.954Z,3.40
2018-07-11T11:56:05.426Z,3.80
2018-07-11T11:58:35.652Z,3.87
2018-07-11T12:01:06.120Z,3.40
2018-07-11T12:03:36.757Z,3.50
2018-07-11T12:06:07.512Z,6.80
2018-07-11T12:08:37.812Z,3.70
2018-07-11T12:11:08.383Z,3.57
2018-07-11T12:13:38.778Z,3.37
2018-07-11T12:16:09.429Z,3.10
2018-07-11T12:18:39.958Z,2.87
2018-07-11T12:21:10.070Z,3.33
2018-07-11T12:23:41.304Z,3.47
2018-07-11T12:26:11.972Z,3.60
2018-07-11T12:28:41.932Z,4.07
2018-07-11T12:31:18.346Z,3.93
2018-07-11T12:33:49.231Z,3.30
2018-07-11T12:36:19.377Z,4.00
2018-07-11T12:38:53.531Z,3.67
2018-07-11T12:41:23.672Z,4.33
2018-07-11T12:43:54.649Z,4.17
2018-07-11T12:46:25.948Z,4.33
2018-07-11T12:49:01.185Z,4.30
2018-07-11T12:51:31.698Z,4.90
2018-07-11T12:54:01.849Z,5.07
2018-07-11T12:56:31.888Z,5.30
2018-07-11T12:59:01.892Z,4.80
2018-07-11T13:01:32.281Z,5.40
2018-07-11T13:04:02.936Z,5.90
2018-07-11T13:06:33.492Z,5.33
2018-07-11T13:09:03.594Z,5.63
2018-07-11T13:11:33.822Z,5.30
2018-07-11T13:14:04.382Z,5.80
2018-07-11T13:16:34.401Z,5.50
2018-07-11T13:19:04.702Z,6.00
2018-07-11T13:21:36.063Z,5.80
2018-07-11T13:24:06.691Z,5.00
2018-07-11T13:26:37.062Z,5.17
2018-07-11T13:29:07.244Z,5.27
2018-07-11T13:31:37.284Z,5.00
2018-07-11T13:34:07.705Z,5.57
2018-07-11T13:36:37.647Z,6.10
2018-07-11T13:39:14.809Z,5.30
2018-07-11T13:41:45.492Z,5.40
2018-07-11T13:44:16.051Z,5.73
2018-07-11T13:46:46.059Z,5.10
2018-07-11T13:49:16.281Z,5.33
2018-07-11T13:51:47.301Z,5.20
2018-07-11T13:54:17.309Z,4.27
2018-07-11T13:56:47.798Z,4.80
2018-07-11T13:59:18.723Z,4.40
2018-07-11T14:01:49.587Z,3.73
2018-07-11T14:04:19.950Z,4.17
2018-07-11T14:06:50.265Z,3.10
2018-07-11T14:09:20.929Z,2.87
2018-07-11T14:11:51.298Z,3.33
2018-07-11T14:14:21.401Z,3.00
2018-07-11T14:16:51.733Z,3.43
2018-07-11T14:19:21.701Z,3.00
2018-07-11T14:21:52.166Z,3.30
2018-07-11T14:24:23.355Z,2.67
2018-07-11T14:26:54.461Z,3.23
2018-07-11T14:29:28.766Z,3.23
2018-07-11T14:31:59.161Z,3.57
2018-07-11T14:34:29.804Z,3.60
2018-07-11T14:36:59.961Z,3.97
2018-07-11T14:39:30.454Z,3.97
2018-07-11T14:42:00.622Z,4.10
2018-07-11T14:44:30.808Z,4.17
2018-07-11T14:47:00.617Z,4.30
2018-07-11T14:49:30.838Z,4.27
2018-07-11T14:52:00.965Z,4.23
2018-07-11T14:54:31.110Z,4.40
2018-07-11T14:57:01.547Z,4.80
2018-07-11T14:59:31.546Z,4.60
2018-07-11T15:02:01.878Z,4.77
2018-07-11T15:04:31.703Z,4.27
2018-07-11T15:07:02.026Z,4.40
2018-07-11T15:09:32.454Z,4.20
2018-07-11T15:12:02.639Z,4.17
2018-07-11T15:14:32.887Z,3.80
2018-07-11T15:17:03.218Z,3.63
2018-07-11T15:19:34.317Z,4.10
2018-07-11T15:22:04.541Z,4.13
2018-07-11T15:24:34.631Z,3.90
2018-07-11T15:27:04.826Z,3.67
2018-07-11T15:29:34.958Z,3.80
2018-07-11T15:32:05.143Z,4.30
2018-07-11T15:34:35.273Z,3.50
2018-07-11T15:37:05.667Z,3.30
2018-07-11T15:39:36.093Z,3.50
2018-07-11T15:42:06.724Z,2.97
2018-07-11T15:44:37.083Z,3.50
2018-07-11T15:47:07.562Z,3.60
2018-07-11T15:49:37.838Z,4.13
2018-07-11T15:52:08.260Z,3.60
2018-07-11T15:54:39.154Z,3.40
2018-07-11T15:57:09.183Z,3.93
2018-07-11T16:00:01.615Z,3.93
2018-07-11T16:02:32.091Z,3.67
2018-07-11T16:05:03.080Z,3.90
2018-07-11T16:07:35.825Z,3.80
2018-07-11T16:10:05.992Z,4.10
2018-07-11T16:12:36.565Z,4.60
2018-07-11T16:15:06.958Z,4.27
2018-07-11T16:17:37.348Z,3.90
2018-07-11T16:20:08.205Z,3.80
2018-07-11T16:22:38.306Z,3.57
2018-07-11T16:25:08.928Z,4.53
2018-07-11T16:27:39.941Z,3.57
2018-07-11T16:30:11.759Z,3.80
2018-07-11T16:32:41.885Z,3.90
2018-07-11T16:35:13.327Z,4.10
2018-07-11T16:37:43.531Z,4.43
2018-07-11T16:40:13.845Z,3.53
2018-07-11T16:42:43.836Z,4.00
2018-07-11T16:45:14.224Z,3.30
2018-07-11T16:47:45.226Z,3.23
2018-07-11T16:50:16.278Z,3.70
2018-07-11T16:52:47.043Z,3.30
2018-07-11T16:55:17.212Z,3.73
2018-07-11T16:57:49.641Z,3.43
2018-07-11T17:00:27.944Z,3.60
2018-07-11T17:03:08.825Z,3.30
2018-07-11T17:05:48.101Z,3.23
2018-07-11T17:08:35.512Z,3.53
2018-07-11T17:11:16.268Z,3.20
2018-07-11T17:13:51.930Z,3.30
2018-07-11T17:16:53.510Z,3.43
2018-07-11T17:19:30.959Z,3.80
2018-07-11T17:22:04.147Z,3.70
2018-07-11T17:24:41.305Z,3.30
2018-07-11T17:27:11.400Z,3.13
2018-07-11T17:29:42.678Z,3.40
2018-07-11T17:32:13.865Z,2.80
2018-07-11T17:34:44.861Z,3.40
2018-07-11T17:37:15.141Z,3.77
2018-07-11T17:39:55.842Z,3.10
2018-07-11T17:42:29.504Z,3.20
2018-07-11T17:45:08.767Z,2.73
2018-07-11T17:48:16.357Z,3.30
2018-07-11T17:50:47.056Z,3.23
2018-07-11T17:53:22.306Z,3.23
2018-07-11T17:56:09.131Z,3.00
2018-07-11T17:58:58.494Z,3.30
2018-07-11T18:01:39.837Z,3.57
2018-07-11T18:04:17.384Z,3.30
2018-07-11T18:07:54.786Z,3.40
2018-07-11T18:10:42.559Z,3.47
2018-07-11T18:13:47.155Z,3.63
2018-07-11T18:16:37.527Z,3.13
2018-07-11T18:19:18.308Z,3.17
2018-07-11T18:22:16.719Z,3.57
2018-07-11T18:24:58.016Z,3.20
2018-07-11T18:27:35.270Z,3.20
2018-07-11T18:30:24.251Z,3.60
2018-07-11T18:33:07.803Z,3.60
2018-07-11T18:35:47.267Z,3.90
2018-07-11T18:38:26.721Z,3.30
2018-07-11T18:41:04.258Z,3.20
2018-07-11T18:43:46.886Z,3.70
2018-07-11T18:48:38.613Z,3.23
2018-07-11T18:52:15.355Z,4.00
2018-07-11T18:54:52.472Z,3.27
2018-07-11T18:58:29.120Z,3.63
2018-07-11T19:01:08.673Z,3.43
2018-07-11T19:03:45.597Z,3.70
2018-07-11T19:06:27.083Z,4.00
2018-07-11T19:09:07.909Z,3.50
2018-07-11T19:11:47.520Z,3.53
2018-07-11T19:14:37.291Z,4.10
2018-07-11T19:19:24.789Z,3.60
2018-07-11T19:22:01.122Z,4.23
2018-07-11T19:25:44.110Z,4.13
2018-07-11T19:28:24.635Z,4.27
2018-07-11T19:31:07.227Z,3.63
2018-07-11T19:33:46.847Z,4.17
2018-07-11T19:36:28.041Z,4.50
2018-07-11T19:39:08.886Z,4.47
2018-07-11T19:41:55.501Z,4.70
2018-07-11T19:44:33.775Z,4.43
2018-07-11T19:47:13.877Z,4.10
2018-07-11T19:50:02.978Z,4.40
2018-07-11T19:54:55.622Z,4.27
2018-07-11T19:57:25.659Z,4.70
2018-07-11T19:59:55.915Z,4.30
2018-07-11T20:02:26.086Z,4.87
2018-07-11T20:04:56.570Z,4.60
2018-07-11T20:07:26.894Z,4.00
2018-07-11T20:09:57.534Z,4.40
2018-07-11T20:12:27.713Z,4.40
2018-07-11T20:14:57.773Z,4.20
2018-07-11T20:17:27.843Z,4.10
2018-07-11T20:19:58.075Z,4.40
2018-07-11T20:22:34.518Z,4.10
2018-07-11T20:25:05.037Z,4.47
2018-07-11T20:27:35.160Z,3.97
2018-07-11T20:30:05.370Z,4.80
2018-07-11T20:32:35.477Z,4.13
2018-07-11T20:35:05.897Z,4.10
2018-07-11T20:37:36.437Z,4.87
2018-07-11T20:40:07.469Z,4.50
2018-07-11T20:42:37.549Z,4.27
2018-07-11T20:45:07.685Z,4.53
2018-07-11T20:47:37.484Z,4.40
2018-07-11T20:50:07.538Z,4.20
2018-07-11T20:52:37.730Z,4.40
2018-07-11T20:55:08.054Z,4.53
2018-07-11T20:57:38.301Z,4.60
2018-07-11T21:00:19.474Z,4.27
2018-07-11T21:04:10.397Z,4.17
2018-07-11T21:06:51.443Z,3.80
2018-07-11T21:09:36.606Z,3.93
2018-07-11T21:14:29.968Z,3.93
2018-07-11T21:18:09.351Z,4.23
2018-07-11T21:20:39.785Z,5.30
2018-07-11T21:23:09.889Z,4.40
2018-07-11T21:25:40.070Z,4.00
2018-07-11T21:28:10.673Z,4.50
2018-07-11T21:30:40.920Z,4.17
2018-07-11T21:33:11.084Z,4.90
2018-07-11T21:35:41.306Z,4.60
2018-07-11T21:38:11.486Z,4.87
2018-07-11T21:40:41.761Z,4.27
2018-07-11T21:43:12.197Z,4.23
2018-07-11T21:45:42.560Z,4.70
2018-07-11T21:48:12.829Z,4.43
2018-07-11T21:50:42.973Z,3.83
2018-07-11T21:53:13.149Z,4.63
2018-07-11T21:55:43.202Z,4.37
2018-07-11T21:58:13.351Z,4.30
2018-07-11T22:00:43.855Z,3.70
2018-07-11T22:03:13.752Z,4.23
2018-07-11T22:05:43.797Z,4.20
2018-07-11T22:08:13.874Z,4.07
2018-07-11T22:10:44.151Z,4.50
2018-07-11T22:13:14.229Z,4.63
2018-07-11T22:15:44.576Z,4.40
2018-07-11T22:18:26.035Z,4.80
2018-07-11T22:20:54.403Z,4.50
2018-07-11T22:23:22.497Z,4.00
2018-07-11T22:25:50.674Z,4.37
2018-07-11T22:28:20.012Z,4.23
2018-07-11T22:30:48.268Z,3.77
2018-07-11T22:33:16.414Z,3.67
2018-07-11T22:35:44.567Z,4.30
2018-07-11T22:38:13.117Z,3.90
2018-07-11T22:40:41.805Z,3.87
2018-07-11T22:43:10.397Z,4.17
2018-07-11T22:45:38.465Z,4.30
2018-07-11T22:48:06.772Z,3.70
2018-07-11T22:50:34.973Z,3.67
2018-07-11T22:53:03.054Z,3.80
2018-07-11T22:55:31.293Z,3.57
2018-07-11T22:57:59.364Z,3.60
2018-07-11T23:00:27.460Z,3.40
2018-07-11T23:02:55.547Z,3.57
2018-07-11T23:05:23.766Z,4.20
2018-07-11T23:07:51.894Z,3.50
2018-07-11T23:10:20.074Z,4.40
2018-07-11T23:12:48.236Z,4.07
2018-07-11T23:15:16.273Z,3.33
2018-07-11T23:17:44.495Z,3.77
2018-07-11T23:20:12.970Z,3.90
2018-07-11T23:22:41.037Z,4.40
2018-07-11T23:25:09.734Z,3.90
2018-07-11T23:27:38.009Z,4.10
2018-07-11T23:30:06.056Z,3.80
2018-07-11T23:32:34.194Z,3.30
2018-07-11T23:35:02.326Z,3.57
2018-07-11T23:37:30.487Z,3.37
2018-07-11T23:39:59.049Z,4.43
2018-07-11T23:42:27.154Z,3.97
2018-07-11T23:44:55.357Z,4.30
2018-07-11T23:47:23.410Z,3.77
2018-07-11T23:49:51.515Z,3.50
2018-07-11T23:52:19.870Z,3.80
2018-07-11T23:54:47.990Z,4.27
2018-07-11T23:57:16.088Z,3.90
2018-07-11T23:59:44.379Z,4.80
